Time;durP1;ratioP1;P1;durP2;ratioP2;P2;SDS_P1;SDS_P2;PMS_P1;PMS_P2;Temp;Humidity;BMP_temperature;BMP_pressure;BME280_temperature;BME280_humidity;BME280_pressure;Samples;Min_cycle;Max_cycle;Signal;HPM_P1;HPM_P2
2022/08/14 00:04:11;;;;;;;6.68;5.97;;;;;;;20.36;100.00;101385.09;10523020;27;20039;-76
2022/08/14 00:09:13;;;;;;;7.47;6.68;;;;;;;20.29;100.00;101374.31;10537779;27;20055;-77
2022/08/14 00:14:14;;;;;;;11.38;6.80;;;;;;;20.20;100.00;101353.81;10533499;27;20173;-76
2022/08/14 00:19:14;;;;;;;10.27;7.18;;;;;;;20.29;100.00;101363.13;10566700;27;20551;-78
2022/08/14 00:24:15;;;;;;;7.65;6.60;;;;;;;20.15;100.00;101346.34;10538660;28;20511;-77
2022/08/14 00:29:15;;;;;;;10.57;7.50;;;;;;;20.20;100.00;101353.00;10490467;28;20056;-77
2022/08/14 00:34:16;;;;;;;9.18;7.25;;;;;;;20.09;100.00;101332.75;10543274;28;20051;-77
2022/08/14 00:39:16;;;;;;;11.55;8.13;;;;;;;20.11;100.00;101336.94;10524755;28;20119;-77
2022/08/14 00:44:17;;;;;;;8.07;7.05;;;;;;;19.85;100.00;101314.19;10523004;28;20090;-77
2022/08/14 00:49:17;;;;;;;8.55;7.65;;;;;;;20.05;100.00;101331.72;10540150;27;20032;-77
2022/08/14 00:54:18;;;;;;;12.20;6.97;;;;;;;20.07;100.00;101326.66;10506596;28;20479;-76
2022/08/14 00:59:19;;;;;;;8.80;7.22;;;;;;;20.11;100.00;101330.47;10523875;28;20467;-76
2022/08/14 01:04:19;;;;;;;8.90;7.20;;;;;;;20.09;100.00;101329.97;10541126;28;20054;-77
2022/08/14 01:09:23;;;;;;;10.07;7.30;;;;;;;20.02;100.00;101323.97;10521597;28;20036;-77
2022/08/14 01:14:24;;;;;;;8.82;7.60;;;;;;;20.01;100.00;101317.56;10519966;28;20040;-76
2022/08/14 01:24:44;;;;;;;9.90;7.95;;;;;;;19.85;100.00;101289.03;10540118;28;20058;-77
2022/08/14 01:29:45;;;;;;;9.80;7.75;;;;;;;19.96;100.00;101304.47;10489992;27;20046;-77
2022/08/14 01:34:53;;;;;;;9.75;7.35;;;;;;;19.86;100.00;101282.31;10504520;28;20036;-77
2022/08/14 01:39:54;;;;;;;10.50;9.13;;;;;;;19.92;100.00;101286.66;10520080;28;20162;-77
2022/08/14 01:44:56;;;;;;;10.77;7.60;;;;;;;19.84;100.00;101279.00;10504318;28;20032;-77
2022/08/14 01:49:56;;;;;;;9.20;7.65;;;;;;;19.62;100.00;101242.53;10499009;28;20431;-77
2022/08/14 01:54:57;;;;;;;11.60;8.63;;;;;;;19.78;100.00;101280.22;10521788;28;20028;-77
2022/08/14 01:59:58;;;;;;;10.90;8.80;;;;;;;19.82;100.00;101286.84;10487139;28;20032;-77
2022/08/14 02:04:59;;;;;;;12.07;8.85;;;;;;;19.76;100.00;101268.53;10537367;28;20036;-77
2022/08/14 02:10:00;;;;;;;12.57;8.40;;;;;;;19.79;100.00;101275.47;10503660;28;20047;-76
2022/08/14 02:15:01;;;;;;;10.45;8.70;;;;;;;19.76;100.00;101271.31;10523276;27;20062;-77
2022/08/14 02:20:03;;;;;;;11.75;8.30;;;;;;;19.71;100.00;101268.63;10547109;27;20036;-77
2022/08/14 02:25:04;;;;;;;12.82;8.90;;;;;;;19.65;100.00;101262.25;10500888;28;20478;-76
2022/08/14 02:30:05;;;;;;;9.43;8.23;;;;;;;19.49;100.00;101236.59;10538272;28;20040;-77
2022/08/14 02:35:17;;;;;;;10.18;8.45;;;;;;;19.59;100.00;101254.28;10518301;28;20035;-77
2022/08/14 02:40:19;;;;;;;13.85;9.02;;;;;;;19.53;100.00;101247.94;10501475;28;20047;-77
2022/08/14 02:45:20;;;;;;;13.07;9.43;;;;;;;19.48;100.00;101248.06;10501129;28;20036;-77
2022/08/14 02:50:21;;;;;;;14.07;8.00;;;;;;;19.42;100.00;101243.69;10519034;28;20039;-77
2022/08/14 02:55:22;;;;;;;9.32;8.18;;;;;;;19.30;100.00;101224.63;10519737;28;20480;-76
2022/08/14 03:00:22;;;;;;;12.60;9.20;;;;;;;19.36;100.00;101223.41;10485417;28;20062;-77
2022/08/14 03:05:23;;;;;;;10.65;8.68;;;;;;;19.39;100.00;101230.31;10530541;28;20075;-77
2022/08/14 03:10:26;;;;;;;11.15;8.93;;;;;;;19.34;100.00;101220.91;10484389;28;20036;-76
2022/08/14 03:15:27;;;;;;;14.77;9.80;;;;;;;19.23;100.00;101213.03;10518945;28;20322;-77
2022/08/14 03:20:28;;;;;;;10.73;9.30;;;;;;;19.24;100.00;101214.66;10501994;28;20055;-76
2022/08/14 03:25:32;;;;;;;11.32;10.02;;;;;;;19.10;100.00;101203.44;10517869;28;20043;-77
2022/08/14 03:30:33;;;;;;;12.38;9.52;;;;;;;19.07;100.00;101199.31;10497924;28;20035;-76
2022/08/14 03:35:34;;;;;;;12.88;9.90;;;;;;;18.95;100.00;101179.41;10504948;28;20036;-76
2022/08/14 03:40:37;;;;;;;13.43;10.02;;;;;;;19.03;100.00;101189.06;10501341;28;20048;-77
2022/08/14 03:45:38;;;;;;;12.13;9.77;;;;;;;19.03;100.00;101186.28;10490832;28;20067;-76
2022/08/14 03:50:38;;;;;;;14.27;10.40;;;;;;;19.02;100.00;101181.84;10509778;28;20529;-76
2022/08/14 03:55:39;;;;;;;17.77;9.93;;;;;;;18.99;100.00;101188.84;10510122;28;20059;-76
2022/08/14 04:00:40;;;;;;;12.63;10.60;;;;;;;18.95;100.00;101190.56;10524717;27;20040;-77
2022/08/14 04:05:41;;;;;;;18.15;10.77;;;;;;;18.79;100.00;101164.91;10508303;27;20032;-77
2022/08/14 04:10:43;;;;;;;11.73;10.02;;;;;;;18.78;100.00;101165.97;10532384;27;20506;-76
2022/08/14 04:15:44;;;;;;;13.25;9.80;;;;;;;18.76;100.00;101162.66;10550540;27;20039;-76
2022/08/14 04:20:45;;;;;;;11.05;9.93;;;;;;;18.72;100.00;101168.00;10567432;27;20411;-76
2022/08/14 04:25:46;;;;;;;11.90;9.82;;;;;;;18.69;100.00;101157.47;10534347;27;20047;-77
2022/08/14 04:30:46;;;;;;;16.55;11.15;;;;;;;18.74;100.00;101157.38;10538246;27;20036;-77
2022/08/14 04:35:47;;;;;;;13.57;10.38;;;;;;;18.73;100.00;101152.94;10522648;27;20039;-77
2022/08/14 04:46:10;;;;;;;13.50;11.35;;;;;;;18.70;100.00;101139.59;10543233;28;20058;-77
2022/08/14 04:51:12;;;;;;;14.98;12.35;;;;;;;18.80;100.00;101154.56;10508907;28;20032;-76
2022/08/14 04:56:15;;;;;;;19.73;12.00;;;;;;;18.79;100.00;101158.47;10473808;28;20044;-77
2022/08/14 05:01:16;;;;;;;16.02;11.82;;;;;;;18.83;100.00;101153.94;10514170;27;20046;-77
2022/08/14 05:06:17;;;;;;;15.13;11.50;;;;;;;18.84;100.00;101150.84;10565276;27;20028;-76
2022/08/14 05:11:18;;;;;;;16.75;11.10;;;;;;;18.97;100.00;101163.19;10564094;27;20073;-77
2022/08/14 05:16:18;;;;;;;13.93;11.95;;;;;;;18.74;100.00;101112.75;10548687;27;20580;-77
2022/08/14 05:21:19;;;;;;;15.98;11.52;;;;;;;19.14;100.00;101166.28;10531066;27;20035;-77
2022/08/14 05:26:20;;;;;;;15.40;11.07;;;;;;;19.17;100.00;101155.63;10539056;27;20040;-76
2022/08/14 05:31:21;;;;;;;13.90;9.93;;;;;;;19.25;100.00;101158.53;10488371;28;20111;-75
2022/08/14 05:36:22;;;;;;;16.02;12.60;;;;;;;19.38;100.00;101148.53;10538782;27;20546;-77
2022/08/14 05:41:22;;;;;;;13.23;11.05;;;;;;;19.51;100.00;101153.34;10563852;27;20024;-76
2022/08/14 05:46:23;;;;;;;13.95;12.55;;;;;;;19.64;100.00;101156.47;10530473;27;20028;-76
2022/08/14 05:51:24;;;;;;;14.18;11.80;;;;;;;19.82;100.00;101158.34;10564942;27;20036;-76
2022/08/14 05:56:25;;;;;;;16.45;11.65;;;;;;;20.06;100.00;101135.78;10530107;27;20027;-75
2022/08/14 06:01:25;;;;;;;13.98;11.38;;;;;;;20.51;100.00;101146.25;10492443;28;20089;-76
2022/08/14 06:06:26;;;;;;;14.00;11.80;;;;;;;20.91;100.00;101149.25;10485434;28;20039;-76
2022/08/14 06:11:27;;;;;;;17.00;11.98;;;;;;;21.16;100.00;101140.19;10520433;28;20052;-74
2022/08/14 06:16:27;;;;;;;12.63;10.63;;;;;;;21.36;100.00;101110.84;10521020;28;20785;-74
2022/08/14 06:21:28;;;;;;;15.90;10.30;;;;;;;21.71;100.00;101127.00;10502784;28;20047;-76
2022/08/14 06:26:28;;;;;;;14.68;10.18;;;;;;;21.96;100.00;101117.84;10535494;28;20544;-76
2022/08/14 06:31:29;;;;;;;11.07;9.65;;;;;;;22.26;100.00;101115.31;10551031;27;20053;-76
2022/08/14 06:36:29;;;;;;;11.93;10.43;;;;;;;22.57;100.00;101108.72;10526054;27;20035;-77
2022/08/14 06:41:31;;;;;;;12.75;9.40;;;;;;;22.83;100.00;101110.69;10543757;27;20039;-75
2022/08/14 06:46:31;;;;;;;12.15;8.82;;;;;;;23.07;100.00;101111.03;10530231;27;20051;-74
2022/08/14 06:51:32;;;;;;;10.68;9.45;;;;;;;23.36;100.00;101087.00;10546712;27;20039;-75
2022/08/14 06:56:32;;;;;;;10.63;7.90;;;;;;;23.69;100.00;101087.19;10545628;27;20347;-76
2022/08/14 07:06:53;;;;;;;8.82;7.93;;;;;;;24.38;100.00;101083.09;10562133;27;20039;-75
2022/08/14 07:11:53;;;;;;;12.15;7.20;;;;;;;24.65;100.00;101078.09;10527180;27;20040;-75
2022/08/14 07:16:54;;;;;;;10.52;6.68;;;;;;;24.81;100.00;101063.41;10526575;27;20057;-74
2022/08/14 07:21:55;;;;;;;9.55;6.60;;;;;;;25.04;100.00;101084.34;10527348;27;20039;-74
2022/08/14 07:26:55;;;;;;;11.00;6.47;;;;;;;25.02;100.00;101052.06;10524295;27;20028;-74
2022/08/14 07:31:56;;;;;;;10.00;6.50;;;;;;;25.46;99.25;101083.41;10560111;27;20036;-75
2022/08/14 07:36:56;;;;;;;7.00;6.25;;;;;;;25.69;97.17;101081.75;10542412;27;20032;-76
2022/08/14 07:41:57;;;;;;;10.15;6.32;;;;;;;25.65;93.78;101068.72;10541507;27;20322;-74
2022/08/14 07:46:57;;;;;;;8.05;6.95;;;;;;;25.92;94.65;101073.69;10543919;27;20036;-73
2022/08/14 07:51:58;;;;;;;9.55;5.40;;;;;;;26.25;93.37;101080.31;10528338;27;20409;-75
2022/08/14 07:56:59;;;;;;;7.80;6.57;;;;;;;26.36;91.19;101065.34;10521875;27;20126;-74
2022/08/14 08:02:00;;;;;;;7.28;6.30;;;;;;;26.52;89.80;101061.75;10518161;27;20399;-75
2022/08/14 08:07:02;;;;;;;7.63;5.97;;;;;;;26.57;88.87;101048.25;10557871;27;20036;-73
2022/08/14 08:12:04;;;;;;;9.10;6.00;;;;;;;26.64;88.96;101047.63;10559598;27;20039;-74
2022/08/14 08:17:05;;;;;;;8.23;6.05;;;;;;;26.86;87.57;101051.06;10544334;27;20046;-75
2022/08/14 08:22:05;;;;;;;8.30;5.60;;;;;;;26.96;85.43;101031.56;10511375;28;20042;-73
2022/08/14 08:27:16;;;;;;;8.57;5.53;;;;;;;27.14;85.45;101042.50;10526766;28;20024;-74
2022/08/14 08:32:16;;;;;;;7.38;5.85;;;;;;;27.35;84.52;101039.47;10564897;27;20095;-74
2022/08/14 08:37:16;;;;;;;8.48;6.32;;;;;;;27.47;82.59;101024.41;10534562;27;20028;-74
2022/08/14 08:42:24;;;;;;;7.15;5.63;;;;;;;27.73;83.33;101037.97;10533431;27;20039;-71
2022/08/14 08:47:25;;;;;;;7.50;6.13;;;;;;;27.89;82.38;101021.81;10552134;27;20588;-74
2022/08/14 08:52:27;;;;;;;8.48;6.43;;;;;;;27.94;81.26;101012.22;10551140;27;20496;-74
2022/08/14 08:57:34;;;;;;;7.20;6.00;;;;;;;28.07;81.00;101021.38;10567826;27;20044;-73
2022/08/14 09:02:35;;;;;;;9.20;6.03;;;;;;;28.16;80.05;101003.00;10534032;27;20043;-75
2022/08/14 09:07:35;;;;;;;8.10;5.97;;;;;;;28.12;78.46;100989.97;10525333;28;20035;-74
2022/08/14 09:12:36;;;;;;;6.50;5.65;;;;;;;28.19;78.29;100987.28;10484547;28;20044;-75
2022/08/14 09:17:36;;;;;;;7.00;5.32;;;;;;;28.27;77.80;100980.56;10484408;28;20342;-75
2022/08/14 09:22:37;;;;;;;6.55;5.85;;;;;;;28.40;77.29;100967.06;10483905;28;20408;-74
2022/08/14 09:27:37;;;;;;;6.28;5.68;;;;;;;28.64;75.66;100959.47;10499459;28;20389;-74
2022/08/14 09:32:53;;;;;;;6.35;5.65;;;;;;;28.73;75.51;100943.03;10499634;28;20032;-74
2022/08/14 09:37:58;;;;;;;6.78;5.20;;;;;;;28.98;74.01;100943.47;10517753;28;20074;-73
2022/08/14 09:43:37;;;;;;;5.43;4.93;;;;;;;29.06;73.06;100941.59;10533972;27;20036;-74
2022/08/14 09:48:38;;;;;;;6.43;5.18;;;;;;;29.17;72.21;100932.09;10508193;28;20037;-75
2022/08/14 09:53:41;;;;;;;9.15;4.97;;;;;;;29.36;70.30;100916.19;10482369;28;20036;-73
2022/08/14 09:58:45;;;;;;;6.03;4.88;;;;;;;29.10;70.99;100902.78;10515534;28;20049;-74
2022/08/14 10:03:54;;;;;;;5.00;4.50;;;;;;;29.53;69.37;100938.31;10537873;27;20032;-74
2022/08/14 10:09:00;;;;;;;6.75;5.13;;;;;;;29.73;68.91;100946.75;10498500;28;20123;-77
2022/08/14 10:14:14;;;;;;;4.72;4.25;;;;;;;29.75;68.38;100915.97;10498294;28;20048;-74
2022/08/14 10:19:15;;;;;;;6.43;4.82;;;;;;;29.88;67.71;100903.16;10531830;27;20495;-75
2022/08/14 10:24:23;;;;;;;6.22;4.55;;;;;;;29.92;66.88;100884.13;10514854;28;20052;-75
2022/08/14 10:29:34;;;;;;;5.50;4.95;;;;;;;30.25;66.76;100862.63;10498728;28;20586;-73
2022/08/14 10:34:36;;;;;;;6.03;4.85;;;;;;;30.47;63.59;100854.31;10497876;28;20048;-75
2022/08/14 10:39:38;;;;;;;6.53;5.15;;;;;;;30.82;63.97;100844.47;10514315;28;20037;-73
2022/08/14 10:44:46;;;;;;;5.28;4.70;;;;;;;30.74;64.15;100847.28;10499040;28;20037;-72
2022/08/14 10:49:57;;;;;;;7.70;5.22;;;;;;;30.88;63.07;100834.41;10513293;28;20543;-76
2022/08/14 10:55:29;;;;;;;9.50;5.50;;;;;;;31.12;61.70;100844.31;10514190;28;20036;-77
2022/08/14 11:00:30;;;;;;;7.13;5.45;;;;;;;31.40;61.08;100832.31;10461487;28;20086;-75
2022/08/14 11:05:44;;;;;;;6.45;4.88;;;;;;;31.62;60.72;100829.56;10513673;27;20091;-75
2022/08/14 11:10:53;;;;;;;5.53;4.68;;;;;;;31.46;61.42;100802.28;10533665;27;20641;-76
2022/08/14 11:15:56;;;;;;;5.90;5.30;;;;;;;30.86;61.34;100806.34;10545306;27;20044;-76
2022/08/14 11:20:58;;;;;;;7.32;4.70;;;;;;;31.04;60.88;100809.34;10546000;27;20039;-76
2022/08/14 11:25:59;;;;;;;6.88;5.40;;;;;;;31.69;60.76;100803.97;10554825;27;20574;-75
2022/08/14 11:31:00;;;;;;;8.10;5.13;;;;;;;31.96;57.48;100771.13;10561108;27;20028;-76
2022/08/14 11:36:04;;;;;;;6.68;5.47;;;;;;;32.14;58.09;100778.91;10562203;27;20032;-77
2022/08/14 11:41:05;;;;;;;7.88;5.18;;;;;;;32.34;56.99;100765.09;10530428;27;20500;-77
2022/08/14 11:46:05;;;;;;;6.35;5.07;;;;;;;32.71;54.91;100753.28;10535554;27;20125;-75
2022/08/14 11:51:19;;;;;;;6.05;5.00;;;;;;;33.04;56.46;100756.88;10550838;27;20032;-75
2022/08/14 11:56:20;;;;;;;5.75;4.95;;;;;;;33.72;53.95;100744.41;10518867;28;20056;-74
2022/08/14 12:01:28;;;;;;;9.25;5.50;;;;;;;33.28;53.96;100745.81;10524687;27;20279;-77
2022/08/14 12:06:30;;;;;;;8.70;5.03;;;;;;;32.92;54.21;100734.50;10541027;28;20035;-76
2022/08/14 12:11:37;;;;;;;10.07;5.70;;;;;;;33.49;53.31;100724.91;10536772;28;20044;-76
2022/08/14 12:16:38;;;;;;;10.55;6.10;;;;;;;34.14;51.22;100708.22;10547498;27;20047;-80
2022/08/14 12:21:38;;;;;;;7.03;5.05;;;;;;;35.17;50.09;100709.22;10519154;28;20559;-77
2022/08/14 12:26:40;;;;;;;6.63;5.93;;;;;;;34.93;49.10;100713.16;10531082;27;20036;-76
2022/08/14 12:31:41;;;;;;;7.80;5.43;;;;;;;34.12;50.64;100722.09;10545241;27;20886;-77
2022/08/14 12:36:41;;;;;;;7.28;5.60;;;;;;;33.32;51.45;100704.63;10498969;28;20028;-76
2022/08/14 12:41:50;;;;;;;7.18;5.57;;;;;;;33.70;50.66;100704.03;10549100;27;20024;-75
2022/08/14 12:47:11;;;;;;;7.68;5.10;;;;;;;34.22;50.25;100675.50;10494330;28;20032;-75
2022/08/14 12:52:11;;;;;;;6.45;5.70;;;;;;;34.46;49.70;100667.09;10524465;27;20114;-76
2022/08/14 12:57:12;;;;;;;8.10;5.88;;;;;;;35.56;47.21;100658.41;10504384;28;20100;-75
2022/08/14 13:02:22;;;;;;;6.38;5.78;;;;;;;36.05;46.31;100649.44;10501659;27;20044;-77
2022/08/14 13:07:25;;;;;;;10.38;6.00;;;;;;;36.78;45.41;100644.84;10526144;28;20039;-76
2022/08/14 13:12:28;;;;;;;7.43;5.93;;;;;;;37.11;44.66;100639.25;10479860;28;20176;-75
2022/08/14 13:17:28;;;;;;;7.22;6.53;;;;;;;36.75;44.05;100622.78;10463404;28;20052;-77
2022/08/14 13:22:29;;;;;;;8.27;6.03;;;;;;;37.01;44.04;100635.34;10471283;28;20056;-77
2022/08/14 13:27:29;;;;;;;7.57;5.65;;;;;;;36.70;43.85;100626.97;10465615;28;20044;-77
2022/08/14 13:32:30;;;;;;;6.93;5.70;;;;;;;36.32;43.47;100607.22;10480775;28;20044;-78
2022/08/14 13:37:30;;;;;;;6.78;5.28;;;;;;;35.74;44.58;100618.88;10498585;28;20048;-77
2022/08/14 13:42:31;;;;;;;8.35;5.82;;;;;;;36.67;42.88;100607.78;10467256;28;20043;-77
2022/08/14 13:47:32;;;;;;;8.52;6.63;;;;;;;37.44;42.13;100605.69;10483306;28;20078;-77
2022/08/14 13:52:42;;;;;;;6.50;5.75;;;;;;;37.03;41.55;100594.72;10499194;28;20466;-76
2022/08/14 13:57:43;;;;;;;6.47;5.97;;;;;;;36.06;42.08;100593.78;10497927;28;20420;-77
2022/08/14 14:02:44;;;;;;;8.88;6.03;;;;;;;36.01;43.69;100582.81;10472280;28;20032;-76
2022/08/14 14:07:51;;;;;;;6.90;6.30;;;;;;;35.19;44.35;100576.38;10457898;28;20045;-76
2022/08/14 14:12:53;;;;;;;7.93;5.95;;;;;;;34.47;46.40;100583.78;10471996;27;20044;-76
2022/08/14 14:17:54;;;;;;;7.57;5.90;;;;;;;35.20;44.68;100572.25;10481492;28;20032;-78
2022/08/14 14:22:55;;;;;;;6.50;5.90;;;;;;;35.94;43.47;100570.22;10498008;28;20032;-77
2022/08/14 14:27:55;;;;;;;8.75;5.35;;;;;;;35.44;43.23;100564.53;10509058;27;20032;-77
2022/08/14 14:32:56;;;;;;;7.05;6.20;;;;;;;34.71;45.05;100559.03;10488654;27;20047;-76
2022/08/14 14:37:56;;;;;;;7.28;6.13;;;;;;;34.59;45.91;100553.84;10523099;27;20059;-77
2022/08/14 14:42:57;;;;;;;7.82;6.05;;;;;;;35.12;45.11;100538.03;10505695;27;20062;-76
2022/08/14 14:47:57;;;;;;;8.73;6.22;;;;;;;35.77;44.71;100525.53;10505845;27;20039;-76
2022/08/14 14:52:58;;;;;;;6.82;6.03;;;;;;;36.02;42.54;100524.28;10538784;27;20496;-78
2022/08/14 14:57:58;;;;;;;10.60;5.90;;;;;;;34.68;45.53;100519.03;10538285;27;20032;-76
2022/08/14 15:02:59;;;;;;;7.45;5.80;;;;;;;33.66;46.70;100509.16;10478986;28;20051;-73
2022/08/14 15:07:59;;;;;;;8.38;5.80;;;;;;;34.91;46.11;100506.84;10472557;28;20401;-77
2022/08/14 15:13:00;;;;;;;6.88;5.43;;;;;;;35.48;43.08;100494.53;10462859;28;20074;-77
2022/08/14 15:18:01;;;;;;;6.22;5.63;;;;;;;36.28;43.82;100488.16;10462976;28;20044;-76
2022/08/14 15:23:02;;;;;;;7.32;5.57;;;;;;;36.88;41.90;100482.34;10495979;28;20040;-77
2022/08/14 15:28:04;;;;;;;6.70;6.00;;;;;;;37.14;41.12;100466.97;10462315;28;20040;-76
2022/08/14 15:33:04;;;;;;;6.93;6.05;;;;;;;37.75;40.63;100470.34;10478879;28;20540;-75
2022/08/14 15:38:07;;;;;;;7.03;6.35;;;;;;;37.87;39.61;100471.66;10478820;28;20048;-76
2022/08/14 15:43:10;;;;;;;8.85;6.05;;;;;;;37.81;40.05;100467.72;10487398;28;20040;-77
2022/08/14 15:48:12;;;;;;;6.28;5.78;;;;;;;37.59;39.22;100476.13;10505257;27;20063;-77
2022/08/14 15:53:12;;;;;;;8.20;5.43;;;;;;;37.24;39.99;100464.28;10526345;27;20050;-76
2022/08/14 15:58:12;;;;;;;8.43;5.53;;;;;;;37.49;40.02;100464.44;10527809;28;20089;-73
2022/08/14 16:03:14;;;;;;;7.32;5.57;;;;;;;36.63;40.74;100459.97;10486535;28;20064;-72
2022/08/14 16:08:15;;;;;;;5.88;5.38;;;;;;;35.36;41.89;100430.13;10505497;28;20032;-80
2022/08/14 16:13:16;;;;;;;6.10;5.47;;;;;;;34.41;43.52;100470.38;10496562;28;20029;-76
2022/08/14 16:18:18;;;;;;;7.68;5.60;;;;;;;33.64;44.19;100481.03;10486291;28;20064;-76
2022/08/14 16:23:19;;;;;;;6.13;5.22;;;;;;;33.09;46.07;100468.41;10482567;28;20049;-76
2022/08/14 16:28:21;;;;;;;6.75;5.93;;;;;;;32.52;47.17;100480.16;10483432;28;20113;-76
2022/08/14 16:33:21;;;;;;;7.93;6.15;;;;;;;32.03;48.00;100487.66;10488545;28;20028;-76
2022/08/14 16:38:24;;;;;;;7.78;6.20;;;;;;;31.56;49.65;100482.81;10462498;28;20033;-76
2022/08/14 16:43:26;;;;;;;6.43;5.63;;;;;;;31.27;49.72;100473.47;10502385;28;20033;-77
2022/08/14 16:48:29;;;;;;;7.38;5.82;;;;;;;31.32;51.61;100481.59;10476381;28;20047;-77
2022/08/14 16:53:29;;;;;;;8.73;5.50;;;;;;;31.40;50.82;100473.88;10460065;28;20037;-76
2022/08/14 16:58:30;;;;;;;8.00;6.00;;;;;;;31.24;49.76;100453.59;10507884;28;20033;-75
2022/08/14 17:03:30;;;;;;;6.10;5.43;;;;;;;31.00;50.84;100450.31;10494060;28;20141;-76
2022/08/14 17:08:31;;;;;;;6.72;5.32;;;;;;;30.76;51.06;100447.00;10504239;28;20048;-76
2022/08/14 17:13:31;;;;;;;5.90;5.30;;;;;;;30.65;52.11;100440.47;10527460;28;20033;-75
2022/08/14 17:18:41;;;;;;;9.75;5.45;;;;;;;30.53;53.32;100452.22;10514277;28;20062;-76
2022/08/14 17:23:42;;;;;;;6.00;5.40;;;;;;;30.29;53.42;100434.69;10497734;28;20040;-76
2022/08/14 17:28:42;;;;;;;7.65;5.22;;;;;;;30.19;54.89;100438.28;10521250;27;20036;-76
2022/08/14 17:33:43;;;;;;;7.47;5.50;;;;;;;30.07;55.07;100438.63;10506387;27;20031;-77
2022/08/14 17:39:10;;;;;;;6.63;5.40;;;;;;;29.91;56.10;100448.31;10503043;27;20036;-74
2022/08/14 17:44:26;;;;;;;6.53;5.18;;;;;;;29.71;56.98;100449.81;10543509;27;20044;-74
2022/08/14 17:49:36;;;;;;;9.65;6.18;;;;;;;29.35;58.08;100436.16;10513123;27;20051;-72
2022/08/14 17:54:42;;;;;;;8.93;5.18;;;;;;;29.24;59.52;100448.63;10501730;28;20037;-70
2022/08/14 17:59:44;;;;;;;6.93;5.95;;;;;;;29.05;60.68;100464.63;10519228;27;20079;-72
2022/08/14 18:04:45;;;;;;;8.00;5.45;;;;;;;28.80;61.59;100460.75;10475470;28;20063;-74
2022/08/14 18:09:48;;;;;;;9.60;6.07;;;;;;;28.62;62.78;100469.84;10496777;28;20032;-75
2022/08/14 18:14:49;;;;;;;9.55;5.32;;;;;;;28.42;62.48;100469.19;10532028;28;20046;-79
2022/08/14 18:19:50;;;;;;;8.48;5.82;;;;;;;27.97;63.17;100425.78;10537005;28;20032;-72
2022/08/14 18:24:51;;;;;;;6.30;5.68;;;;;;;28.09;64.18;100464.31;10537347;27;20500;-76
2022/08/14 18:29:52;;;;;;;6.45;5.72;;;;;;;27.86;65.48;100467.22;10526958;27;20111;-76
2022/08/14 18:35:09;;;;;;;6.85;5.60;;;;;;;27.67;65.95;100473.81;10530583;27;20031;-76
2022/08/14 18:40:15;;;;;;;9.52;5.60;;;;;;;27.52;67.42;100481.25;10558103;27;20040;-75
2022/08/14 18:45:17;;;;;;;10.02;5.78;;;;;;;27.31;68.33;100481.72;10539804;28;20111;-76
2022/08/14 18:50:22;;;;;;;7.50;5.18;;;;;;;27.10;68.97;100471.66;10521736;28;20051;-75
2022/08/14 18:55:24;;;;;;;7.25;6.18;;;;;;;27.03;69.66;100488.47;10504198;28;20096;-74
2022/08/14 19:00:49;;;;;;;6.75;5.85;;;;;;;26.82;70.89;100471.16;10532789;27;20032;-76
2022/08/14 19:05:48;;;;;;;6.65;5.35;;;;;;;26.74;72.02;100487.13;10539094;27;20093;-75
2022/08/14 19:10:53;;;;;;;6.00;5.22;;;;;;;26.58;72.71;100490.03;10505978;28;20032;-76
2022/08/14 19:16:10;;;;;;;9.65;6.00;;;;;;;26.37;74.00;100485.56;10547745;27;20036;-76
2022/08/14 19:21:23;;;;;;;9.23;6.60;;;;;;;26.22;75.43;100483.63;10518678;28;20039;-75
2022/08/14 19:26:25;;;;;;;7.38;6.53;;;;;;;25.97;76.08;100478.25;10535853;28;20102;-75
2022/08/14 19:31:30;;;;;;;10.68;6.20;;;;;;;25.93;77.26;100485.03;10529002;27;20024;-75
2022/08/14 19:36:46;;;;;;;8.50;6.03;;;;;;;25.75;79.29;100488.19;10534943;28;20065;-75
2022/08/14 19:41:54;;;;;;;7.95;6.38;;;;;;;25.61;80.85;100481.41;10534841;27;20036;-75
2022/08/14 19:46:54;;;;;;;8.85;7.00;;;;;;;25.45;81.82;100482.25;10519115;28;20040;-75
2022/08/14 19:51:55;;;;;;;10.27;6.75;;;;;;;25.32;83.42;100480.72;10518076;28;20036;-75
2022/08/14 19:56:55;;;;;;;9.77;6.35;;;;;;;25.17;84.29;100477.50;10527559;27;20099;-75
2022/08/14 20:01:56;;;;;;;7.70;6.57;;;;;;;25.02;85.56;100467.06;10501602;28;20040;-76
2022/08/14 20:07:00;;;;;;;12.70;6.43;;;;;;;24.97;86.12;100481.41;10546718;27;20119;-75
2022/08/14 20:12:01;;;;;;;7.47;6.45;;;;;;;24.90;87.52;100475.59;10525295;27;20042;-76
2022/08/14 20:17:01;;;;;;;7.47;6.22;;;;;;;24.83;88.72;100476.22;10516709;27;20040;-76
2022/08/14 20:22:03;;;;;;;8.75;6.57;;;;;;;24.76;90.16;100459.97;10530625;27;20039;-74
2022/08/14 20:27:24;;;;;;;9.45;6.50;;;;;;;24.81;90.62;100463.69;10573607;27;20028;-75
2022/08/14 20:32:31;;;;;;;11.30;6.88;;;;;;;24.68;91.23;100455.31;10558314;27;20040;-74
2022/08/14 20:37:34;;;;;;;8.45;7.30;;;;;;;24.66;92.01;100460.50;10526169;27;20040;-75
2022/08/14 20:47:57;;;;;;;8.98;6.65;;;;;;;24.59;93.47;100467.91;10541645;28;20084;-75
2022/08/14 20:52:58;;;;;;;8.00;6.40;;;;;;;24.45;94.72;100455.03;10536716;28;20040;-75
2022/08/14 20:58:02;;;;;;;8.98;7.18;;;;;;;24.52;94.62;100471.34;10520379;28;20119;-75
2022/08/14 21:03:26;;;;;;;11.13;7.80;;;;;;;24.47;95.60;100471.56;10508647;28;20093;-75
2022/08/14 21:08:28;;;;;;;11.38;8.15;;;;;;;24.28;96.13;100444.91;10582155;27;20065;-75
2022/08/14 21:13:31;;;;;;;8.85;7.60;;;;;;;24.29;97.23;100462.59;10581646;27;20527;-75
2022/08/14 21:18:33;;;;;;;9.15;7.70;;;;;;;24.14;98.18;100465.03;10548229;27;20055;-75
2022/08/14 21:23:36;;;;;;;9.05;6.82;;;;;;;23.99;99.11;100453.69;10582366;27;20065;-75
2022/08/14 21:28:36;;;;;;;10.70;6.90;;;;;;;24.01;99.69;100457.78;10531605;27;20038;-74
2022/08/14 21:33:38;;;;;;;10.30;6.88;;;;;;;23.99;100.00;100470.56;10532007;27;20031;-75
2022/08/14 21:38:39;;;;;;;8.52;6.80;;;;;;;23.89;100.00;100450.19;10530312;27;20051;-75
2022/08/14 21:43:39;;;;;;;7.60;6.43;;;;;;;24.00;100.00;100449.69;10546948;27;20099;-75
2022/08/14 21:48:41;;;;;;;7.63;6.53;;;;;;;23.96;100.00;100439.19;10546314;27;20039;-75
2022/08/14 21:53:43;;;;;;;11.07;7.25;;;;;;;24.04;99.92;100439.38;10530432;27;20522;-75
2022/08/14 21:58:43;;;;;;;8.27;6.40;;;;;;;24.11;100.00;100439.59;10546073;27;20095;-74
2022/08/14 22:03:44;;;;;;;8.63;6.93;;;;;;;24.07;100.00;100439.50;10546422;27;20039;-75
2022/08/14 22:08:45;;;;;;;9.85;7.40;;;;;;;23.99;100.00;100437.63;10546366;27;20118;-74
2022/08/14 22:13:45;;;;;;;9.25;7.15;;;;;;;23.85;100.00;100429.59;10508080;27;20060;-74
2022/08/14 22:18:47;;;;;;;11.27;7.30;;;;;;;23.73;100.00;100430.41;10536389;27;20048;-74
2022/08/14 22:23:47;;;;;;;9.77;7.13;;;;;;;23.64;100.00;100428.91;10531511;28;20036;-75
2022/08/14 22:28:48;;;;;;;9.20;7.70;;;;;;;23.49;100.00;100419.22;10537520;27;20055;-74
2022/08/14 22:33:49;;;;;;;11.05;7.78;;;;;;;23.38;100.00;100430.13;10511992;27;20044;-75
2022/08/14 22:38:50;;;;;;;9.23;7.55;;;;;;;23.21;100.00;100402.25;10562372;27;20050;-74
2022/08/14 22:43:52;;;;;;;12.20;7.40;;;;;;;23.19;100.00;100413.84;10561946;27;20043;-74
2022/08/14 22:48:52;;;;;;;9.90;7.30;;;;;;;23.12;100.00;100422.84;10543686;27;20499;-74
2022/08/14 22:53:53;;;;;;;8.65;6.80;;;;;;;22.95;100.00;100414.63;10528115;27;20027;-75
2022/08/14 22:58:55;;;;;;;9.07;7.82;;;;;;;22.80;100.00;100399.31;10544597;27;20032;-74
2022/08/14 23:03:55;;;;;;;9.90;7.07;;;;;;;22.64;100.00;100401.16;10545039;27;20521;-75
2022/08/14 23:08:56;;;;;;;11.32;7.25;;;;;;;22.62;100.00;100425.94;10543798;27;20062;-75
2022/08/14 23:13:56;;;;;;;8.65;7.78;;;;;;;22.49;100.00;100414.66;10504136;27;20047;-75
2022/08/14 23:18:57;;;;;;;9.18;7.38;;;;;;;22.52;100.00;100422.38;10539484;27;20066;-75